sensor_id;sensor_type;location;lat;lon;timestamp;P1;durP1;ratioP1;P2;durP2;ratioP2
84187;SDS011;74316;45.648;13.764;2024-01-27T00:01:50;27.88;;;12.32;;
84187;SDS011;74316;45.648;13.764;2024-01-27T00:04:16;28.48;;;11.75;;
84187;SDS011;74316;45.648;13.764;2024-01-27T00:06:42;31.10;;;12.45;;
84187;SDS011;74316;45.648;13.764;2024-01-27T00:09:08;35.88;;;13.18;;
84187;SDS011;74316;45.648;13.764;2024-01-27T00:11:34;31.35;;;12.77;;
84187;SDS011;74316;45.648;13.764;2024-01-27T00:13:59;33.58;;;12.60;;
84187;SDS011;74316;45.648;13.764;2024-01-27T00:16:26;32.10;;;12.35;;
84187;SDS011;74316;45.648;13.764;2024-01-27T00:18:52;28.17;;;12.15;;
84187;SDS011;74316;45.648;13.764;2024-01-27T00:21:17;25.48;;;12.05;;
84187;SDS011;74316;45.648;13.764;2024-01-27T00:23:44;32.30;;;11.85;;
84187;SDS011;74316;45.648;13.764;2024-01-27T00:26:10;29.20;;;12.20;;
84187;SDS011;74316;45.648;13.764;2024-01-27T00:28:36;24.50;;;11.68;;
84187;SDS011;74316;45.648;13.764;2024-01-27T00:31:01;24.90;;;11.68;;
84187;SDS011;74316;45.648;13.764;2024-01-27T00:33:27;24.17;;;11.45;;
84187;SDS011;74316;45.648;13.764;2024-01-27T00:35:53;29.65;;;12.13;;
84187;SDS011;74316;45.648;13.764;2024-01-27T00:38:19;24.60;;;11.90;;
84187;SDS011;74316;45.648;13.764;2024-01-27T00:40:46;24.38;;;11.55;;
84187;SDS011;74316;45.648;13.764;2024-01-27T00:43:15;28.42;;;12.07;;
84187;SDS011;74316;45.648;13.764;2024-01-27T00:45:42;27.30;;;12.00;;
84187;SDS011;74316;45.648;13.764;2024-01-27T00:48:07;26.70;;;11.13;;
84187;SDS011;74316;45.648;13.764;2024-01-27T00:50:34;25.42;;;11.77;;
84187;SDS011;74316;45.648;13.764;2024-01-27T00:52:59;31.05;;;11.95;;
84187;SDS011;74316;45.648;13.764;2024-01-27T00:55:26;25.38;;;11.15;;
84187;SDS011;74316;45.648;13.764;2024-01-27T00:57:53;24.33;;;11.13;;
84187;SDS011;74316;45.648;13.764;2024-01-27T01:00:19;27.45;;;11.88;;
84187;SDS011;74316;45.648;13.764;2024-01-27T01:02:44;27.83;;;12.68;;
84187;SDS011;74316;45.648;13.764;2024-01-27T01:05:11;25.45;;;10.88;;
84187;SDS011;74316;45.648;13.764;2024-01-27T01:07:36;25.27;;;11.10;;
84187;SDS011;74316;45.648;13.764;2024-01-27T01:10:02;25.80;;;11.38;;
84187;SDS011;74316;45.648;13.764;2024-01-27T01:12:28;23.85;;;10.90;;
84187;SDS011;74316;45.648;13.764;2024-01-27T01:14:53;21.30;;;10.50;;
84187;SDS011;74316;45.648;13.764;2024-01-27T01:17:19;23.90;;;11.00;;
84187;SDS011;74316;45.648;13.764;2024-01-27T01:19:45;21.50;;;10.88;;
84187;SDS011;74316;45.648;13.764;2024-01-27T01:22:10;22.55;;;10.20;;
84187;SDS011;74316;45.648;13.764;2024-01-27T01:24:36;22.73;;;11.07;;
84187;SDS011;74316;45.648;13.764;2024-01-27T01:27:03;22.60;;;10.93;;
84187;SDS011;74316;45.648;13.764;2024-01-27T01:29:29;25.13;;;10.68;;
84187;SDS011;74316;45.648;13.764;2024-01-27T01:31:54;24.77;;;10.55;;
84187;SDS011;74316;45.648;13.764;2024-01-27T01:34:20;21.77;;;10.57;;
84187;SDS011;74316;45.648;13.764;2024-01-27T01:36:46;19.88;;;10.20;;
84187;SDS011;74316;45.648;13.764;2024-01-27T01:39:13;24.00;;;11.13;;
84187;SDS011;74316;45.648;13.764;2024-01-27T01:41:39;22.67;;;10.40;;
84187;SDS011;74316;45.648;13.764;2024-01-27T01:44:06;22.42;;;10.32;;
84187;SDS011;74316;45.648;13.764;2024-01-27T01:46:32;18.75;;;10.45;;
84187;SDS011;74316;45.648;13.764;2024-01-27T01:48:58;18.65;;;10.43;;
84187;SDS011;74316;45.648;13.764;2024-01-27T01:51:25;21.27;;;10.13;;
84187;SDS011;74316;45.648;13.764;2024-01-27T01:53:54;20.75;;;10.90;;
84187;SDS011;74316;45.648;13.764;2024-01-27T01:56:23;17.40;;;10.15;;
84187;SDS011;74316;45.648;13.764;2024-01-27T01:58:49;20.85;;;10.18;;
84187;SDS011;74316;45.648;13.764;2024-01-27T02:01:18;20.00;;;10.70;;
84187;SDS011;74316;45.648;13.764;2024-01-27T02:03:52;16.48;;;10.25;;
84187;SDS011;74316;45.648;13.764;2024-01-27T02:06:18;21.17;;;10.45;;
84187;SDS011;74316;45.648;13.764;2024-01-27T02:08:44;20.15;;;10.02;;
84187;SDS011;74316;45.648;13.764;2024-01-27T02:11:10;19.85;;;9.93;;
84187;SDS011;74316;45.648;13.764;2024-01-27T02:13:36;17.23;;;9.48;;
84187;SDS011;74316;45.648;13.764;2024-01-27T02:16:02;21.20;;;10.10;;
84187;SDS011;74316;45.648;13.764;2024-01-27T02:18:28;19.85;;;9.95;;
84187;SDS011;74316;45.648;13.764;2024-01-27T02:20:54;18.67;;;10.13;;
84187;SDS011;74316;45.648;13.764;2024-01-27T02:23:20;16.23;;;9.40;;
84187;SDS011;74316;45.648;13.764;2024-01-27T02:25:46;18.25;;;9.63;;
84187;SDS011;74316;45.648;13.764;2024-01-27T02:28:12;17.83;;;9.77;;
84187;SDS011;74316;45.648;13.764;2024-01-27T02:30:40;15.07;;;9.35;;
84187;SDS011;74316;45.648;13.764;2024-01-27T02:33:09;14.15;;;9.50;;
84187;SDS011;74316;45.648;13.764;2024-01-27T02:35:35;17.95;;;10.05;;
84187;SDS011;74316;45.648;13.764;2024-01-27T02:38:01;19.42;;;9.90;;
84187;SDS011;74316;45.648;13.764;2024-01-27T02:40:27;15.88;;;9.20;;
84187;SDS011;74316;45.648;13.764;2024-01-27T02:42:53;18.38;;;9.13;;
84187;SDS011;74316;45.648;13.764;2024-01-27T02:45:19;17.85;;;10.07;;
84187;SDS011;74316;45.648;13.764;2024-01-27T02:47:44;17.73;;;9.65;;
84187;SDS011;74316;45.648;13.764;2024-01-27T02:50:10;17.98;;;9.30;;
84187;SDS011;74316;45.648;13.764;2024-01-27T02:52:36;17.88;;;9.68;;
84187;SDS011;74316;45.648;13.764;2024-01-27T02:55:02;14.15;;;8.77;;
84187;SDS011;74316;45.648;13.764;2024-01-27T02:57:29;15.40;;;9.10;;
84187;SDS011;74316;45.648;13.764;2024-01-27T02:59:54;15.77;;;9.60;;
84187;SDS011;74316;45.648;13.764;2024-01-27T03:02:20;18.13;;;8.82;;
84187;SDS011;74316;45.648;13.764;2024-01-27T03:04:46;15.05;;;9.15;;
84187;SDS011;74316;45.648;13.764;2024-01-27T03:07:13;16.23;;;9.40;;
84187;SDS011;74316;45.648;13.764;2024-01-27T03:09:38;14.80;;;8.75;;
84187;SDS011;74316;45.648;13.764;2024-01-27T03:12:05;15.93;;;9.05;;
84187;SDS011;74316;45.648;13.764;2024-01-27T03:14:32;12.65;;;9.00;;
84187;SDS011;74316;45.648;13.764;2024-01-27T03:16:58;12.43;;;8.18;;
84187;SDS011;74316;45.648;13.764;2024-01-27T03:19:24;16.13;;;9.13;;
84187;SDS011;74316;45.648;13.764;2024-01-27T03:21:50;13.77;;;9.18;;
84187;SDS011;74316;45.648;13.764;2024-01-27T03:24:17;15.35;;;8.95;;
84187;SDS011;74316;45.648;13.764;2024-01-27T03:26:43;16.67;;;9.32;;
84187;SDS011;74316;45.648;13.764;2024-01-27T03:29:09;15.82;;;8.65;;
84187;SDS011;74316;45.648;13.764;2024-01-27T03:31:34;13.63;;;8.10;;
84187;SDS011;74316;45.648;13.764;2024-01-27T03:34:01;15.55;;;8.93;;
84187;SDS011;74316;45.648;13.764;2024-01-27T03:36:27;13.30;;;8.15;;
84187;SDS011;74316;45.648;13.764;2024-01-27T03:38:56;12.65;;;8.60;;
84187;SDS011;74316;45.648;13.764;2024-01-27T03:41:23;14.85;;;7.63;;
84187;SDS011;74316;45.648;13.764;2024-01-27T03:43:49;14.50;;;8.68;;
84187;SDS011;74316;45.648;13.764;2024-01-27T03:46:15;16.63;;;9.30;;
84187;SDS011;74316;45.648;13.764;2024-01-27T03:48:41;15.02;;;8.93;;
84187;SDS011;74316;45.648;13.764;2024-01-27T03:51:07;14.77;;;8.32;;
84187;SDS011;74316;45.648;13.764;2024-01-27T03:53:32;13.23;;;8.13;;
84187;SDS011;74316;45.648;13.764;2024-01-27T03:55:58;12.35;;;8.68;;
84187;SDS011;74316;45.648;13.764;2024-01-27T03:58:27;13.20;;;8.63;;
84187;SDS011;74316;45.648;13.764;2024-01-27T04:00:53;14.05;;;8.07;;
84187;SDS011;74316;45.648;13.764;2024-01-27T04:03:18;12.35;;;8.60;;
84187;SDS011;74316;45.648;13.764;2024-01-27T04:05:45;14.43;;;7.88;;
84187;SDS011;74316;45.648;13.764;2024-01-27T04:08:11;14.02;;;8.00;;
84187;SDS011;74316;45.648;13.764;2024-01-27T04:10:37;14.60;;;8.40;;
84187;SDS011;74316;45.648;13.764;2024-01-27T04:13:03;13.35;;;8.25;;
84187;SDS011;74316;45.648;13.764;2024-01-27T04:15:29;11.63;;;8.25;;
84187;SDS011;74316;45.648;13.764;2024-01-27T04:17:55;13.98;;;7.75;;
84187;SDS011;74316;45.648;13.764;2024-01-27T04:20:22;11.93;;;7.70;;
84187;SDS011;74316;45.648;13.764;2024-01-27T04:22:48;13.95;;;8.60;;
84187;SDS011;74316;45.648;13.764;2024-01-27T04:25:14;16.45;;;8.50;;
84187;SDS011;74316;45.648;13.764;2024-01-27T04:27:40;12.27;;;8.25;;
84187;SDS011;74316;45.648;13.764;2024-01-27T04:30:07;13.25;;;7.63;;
84187;SDS011;74316;45.648;13.764;2024-01-27T04:32:33;11.43;;;7.75;;
84187;SDS011;74316;45.648;13.764;2024-01-27T04:34:59;13.13;;;8.55;;
84187;SDS011;74316;45.648;13.764;2024-01-27T04:37:25;13.38;;;7.88;;
84187;SDS011;74316;45.648;13.764;2024-01-27T04:39:50;11.55;;;7.95;;
84187;SDS011;74316;45.648;13.764;2024-01-27T04:42:16;12.60;;;7.95;;
84187;SDS011;74316;45.648;13.764;2024-01-27T04:44:42;16.50;;;8.00;;
84187;SDS011;74316;45.648;13.764;2024-01-27T04:47:08;12.75;;;8.30;;
84187;SDS011;74316;45.648;13.764;2024-01-27T04:49:34;11.20;;;8.05;;
84187;SDS011;74316;45.648;13.764;2024-01-27T04:51:59;10.85;;;8.02;;
84187;SDS011;74316;45.648;13.764;2024-01-27T04:54:26;11.55;;;7.85;;
84187;SDS011;74316;45.648;13.764;2024-01-27T04:56:52;14.23;;;8.15;;
84187;SDS011;74316;45.648;13.764;2024-01-27T04:59:18;10.00;;;8.07;;
84187;SDS011;74316;45.648;13.764;2024-01-27T05:01:44;11.00;;;7.45;;
84187;SDS011;74316;45.648;13.764;2024-01-27T05:04:11;13.13;;;7.63;;
84187;SDS011;74316;45.648;13.764;2024-01-27T05:06:36;11.98;;;8.07;;
84187;SDS011;74316;45.648;13.764;2024-01-27T05:09:04;11.98;;;7.80;;
84187;SDS011;74316;45.648;13.764;2024-01-27T05:11:31;11.75;;;8.02;;
84187;SDS011;74316;45.648;13.764;2024-01-27T05:13:57;11.88;;;7.85;;
84187;SDS011;74316;45.648;13.764;2024-01-27T05:16:23;10.77;;;7.85;;
84187;SDS011;74316;45.648;13.764;2024-01-27T05:18:49;9.63;;;7.55;;
84187;SDS011;74316;45.648;13.764;2024-01-27T05:21:15;15.13;;;7.90;;
84187;SDS011;74316;45.648;13.764;2024-01-27T05:23:41;11.10;;;7.53;;
84187;SDS011;74316;45.648;13.764;2024-01-27T05:26:06;16.23;;;7.75;;
84187;SDS011;74316;45.648;13.764;2024-01-27T05:28:32;11.05;;;7.65;;
84187;SDS011;74316;45.648;13.764;2024-01-27T05:30:58;11.35;;;8.05;;
84187;SDS011;74316;45.648;13.764;2024-01-27T05:33:27;9.73;;;6.82;;
84187;SDS011;74316;45.648;13.764;2024-01-27T05:35:53;11.10;;;7.05;;
84187;SDS011;74316;45.648;13.764;2024-01-27T05:38:18;11.80;;;7.32;;
84187;SDS011;74316;45.648;13.764;2024-01-27T05:40:44;10.85;;;6.88;;
84187;SDS011;74316;45.648;13.764;2024-01-27T05:43:10;10.85;;;7.00;;
84187;SDS011;74316;45.648;13.764;2024-01-27T05:45:36;9.82;;;7.25;;
84187;SDS011;74316;45.648;13.764;2024-01-27T05:48:02;8.70;;;6.70;;
84187;SDS011;74316;45.648;13.764;2024-01-27T05:50:27;10.95;;;6.88;;
84187;SDS011;74316;45.648;13.764;2024-01-27T05:52:56;10.80;;;7.43;;
84187;SDS011;74316;45.648;13.764;2024-01-27T05:55:28;14.88;;;7.03;;
84187;SDS011;74316;45.648;13.764;2024-01-27T05:57:54;11.38;;;7.28;;
84187;SDS011;74316;45.648;13.764;2024-01-27T06:00:21;10.07;;;7.25;;
84187;SDS011;74316;45.648;13.764;2024-01-27T06:02:47;10.23;;;7.28;;
84187;SDS011;74316;45.648;13.764;2024-01-27T06:05:13;8.80;;;6.78;;
84187;SDS011;74316;45.648;13.764;2024-01-27T06:07:40;10.77;;;7.00;;
84187;SDS011;74316;45.648;13.764;2024-01-27T06:10:08;11.77;;;6.88;;
84187;SDS011;74316;45.648;13.764;2024-01-27T06:12:37;11.38;;;6.90;;
84187;SDS011;74316;45.648;13.764;2024-01-27T06:15:04;9.68;;;7.35;;
84187;SDS011;74316;45.648;13.764;2024-01-27T06:17:31;9.05;;;6.97;;
84187;SDS011;74316;45.648;13.764;2024-01-27T06:19:56;14.90;;;7.30;;
84187;SDS011;74316;45.648;13.764;2024-01-27T06:22:23;8.35;;;6.72;;
84187;SDS011;74316;45.648;13.764;2024-01-27T06:24:50;13.32;;;7.05;;
84187;SDS011;74316;45.648;13.764;2024-01-27T06:27:16;9.25;;;6.82;;
84187;SDS011;74316;45.648;13.764;2024-01-27T06:29:42;9.45;;;7.35;;
84187;SDS011;74316;45.648;13.764;2024-01-27T06:32:09;10.43;;;7.20;;
84187;SDS011;74316;45.648;13.764;2024-01-27T06:34:34;7.63;;;6.80;;
84187;SDS011;74316;45.648;13.764;2024-01-27T06:37:01;10.40;;;7.00;;
84187;SDS011;74316;45.648;13.764;2024-01-27T06:39:26;7.97;;;6.65;;
84187;SDS011;74316;45.648;13.764;2024-01-27T06:41:56;9.50;;;6.60;;
84187;SDS011;74316;45.648;13.764;2024-01-27T06:44:23;7.68;;;6.75;;
84187;SDS011;74316;45.648;13.764;2024-01-27T06:46:49;15.75;;;7.20;;
84187;SDS011;74316;45.648;13.764;2024-01-27T06:49:18;9.77;;;7.05;;
84187;SDS011;74316;45.648;13.764;2024-01-27T06:51:44;9.63;;;6.70;;
84187;SDS011;74316;45.648;13.764;2024-01-27T06:54:11;12.13;;;7.10;;
84187;SDS011;74316;45.648;13.764;2024-01-27T06:56:36;12.25;;;6.90;;
84187;SDS011;74316;45.648;13.764;2024-01-27T06:59:03;12.15;;;7.10;;
84187;SDS011;74316;45.648;13.764;2024-01-27T07:01:29;11.15;;;6.63;;
84187;SDS011;74316;45.648;13.764;2024-01-27T07:03:55;14.02;;;7.15;;
84187;SDS011;74316;45.648;13.764;2024-01-27T07:06:22;11.45;;;6.38;;
84187;SDS011;74316;45.648;13.764;2024-01-27T07:08:48;10.10;;;6.68;;
84187;SDS011;74316;45.648;13.764;2024-01-27T07:11:14;8.32;;;6.47;;
84187;SDS011;74316;45.648;13.764;2024-01-27T07:13:43;16.70;;;6.93;;
84187;SDS011;74316;45.648;13.764;2024-01-27T07:16:09;14.60;;;7.05;;
84187;SDS011;74316;45.648;13.764;2024-01-27T07:18:35;16.83;;;6.95;;
84187;SDS011;74316;45.648;13.764;2024-01-27T07:21:01;16.52;;;7.53;;
84187;SDS011;74316;45.648;13.764;2024-01-27T07:23:28;19.23;;;7.00;;
84187;SDS011;74316;45.648;13.764;2024-01-27T07:25:53;21.77;;;6.72;;
84187;SDS011;74316;45.648;13.764;2024-01-27T07:28:20;12.95;;;7.10;;
84187;SDS011;74316;45.648;13.764;2024-01-27T07:30:46;16.95;;;6.65;;
84187;SDS011;74316;45.648;13.764;2024-01-27T07:33:11;14.80;;;6.25;;
84187;SDS011;74316;45.648;13.764;2024-01-27T07:35:38;10.65;;;6.72;;
84187;SDS011;74316;45.648;13.764;2024-01-27T07:38:04;13.18;;;7.13;;
84187;SDS011;74316;45.648;13.764;2024-01-27T07:40:30;19.67;;;6.75;;
84187;SDS011;74316;45.648;13.764;2024-01-27T07:42:55;25.48;;;7.40;;
84187;SDS011;74316;45.648;13.764;2024-01-27T07:45:21;20.90;;;7.00;;
84187;SDS011;74316;45.648;13.764;2024-01-27T07:47:47;20.52;;;7.22;;
84187;SDS011;74316;45.648;13.764;2024-01-27T07:50:13;16.20;;;11.68;;
84187;SDS011;74316;45.648;13.764;2024-01-27T07:52:42;25.08;;;18.58;;
84187;SDS011;74316;45.648;13.764;2024-01-27T07:55:12;26.77;;;23.83;;
84187;SDS011;74316;45.648;13.764;2024-01-27T07:57:37;39.15;;;27.88;;
84187;SDS011;74316;45.648;13.764;2024-01-27T08:00:03;36.05;;;27.38;;
84187;SDS011;74316;45.648;13.764;2024-01-27T08:02:32;33.45;;;27.77;;
84187;SDS011;74316;45.648;13.764;2024-01-27T08:04:58;37.22;;;28.73;;
84187;SDS011;74316;45.648;13.764;2024-01-27T08:07:24;35.58;;;28.08;;
84187;SDS011;74316;45.648;13.764;2024-01-27T08:09:50;34.80;;;28.05;;
84187;SDS011;74316;45.648;13.764;2024-01-27T08:12:15;34.15;;;27.98;;
84187;SDS011;74316;45.648;13.764;2024-01-27T08:14:41;33.17;;;27.88;;
84187;SDS011;74316;45.648;13.764;2024-01-27T08:17:07;32.72;;;27.30;;
84187;SDS011;74316;45.648;13.764;2024-01-27T08:19:33;31.30;;;26.88;;
84187;SDS011;74316;45.648;13.764;2024-01-27T08:21:59;29.17;;;26.05;;
84187;SDS011;74316;45.648;13.764;2024-01-27T08:24:27;30.85;;;27.30;;
84187;SDS011;74316;45.648;13.764;2024-01-27T08:26:53;32.13;;;27.10;;
84187;SDS011;74316;45.648;13.764;2024-01-27T08:29:19;29.83;;;26.67;;
84187;SDS011;74316;45.648;13.764;2024-01-27T08:31:44;30.90;;;27.40;;
84187;SDS011;74316;45.648;13.764;2024-01-27T08:34:13;32.60;;;26.35;;
84187;SDS011;74316;45.648;13.764;2024-01-27T08:36:39;32.10;;;27.92;;
84187;SDS011;74316;45.648;13.764;2024-01-27T08:39:04;34.22;;;28.20;;
84187;SDS011;74316;45.648;13.764;2024-01-27T08:41:35;30.40;;;27.17;;
84187;SDS011;74316;45.648;13.764;2024-01-27T08:44:01;32.40;;;26.77;;
84187;SDS011;74316;45.648;13.764;2024-01-27T08:46:27;27.85;;;24.73;;
84187;SDS011;74316;45.648;13.764;2024-01-27T08:48:54;30.15;;;23.92;;
84187;SDS011;74316;45.648;13.764;2024-01-27T08:51:22;31.25;;;24.58;;
84187;SDS011;74316;45.648;13.764;2024-01-27T08:53:50;26.80;;;23.90;;
84187;SDS011;74316;45.648;13.764;2024-01-27T08:56:16;26.80;;;23.25;;
84187;SDS011;74316;45.648;13.764;2024-01-27T08:58:45;28.15;;;23.63;;
84187;SDS011;74316;45.648;13.764;2024-01-27T09:01:12;29.63;;;23.27;;
84187;SDS011;74316;45.648;13.764;2024-01-27T09:03:40;32.65;;;22.25;;
84187;SDS011;74316;45.648;13.764;2024-01-27T09:06:06;29.45;;;21.17;;
84187;SDS011;74316;45.648;13.764;2024-01-27T09:08:33;25.65;;;22.90;;
84187;SDS011;74316;45.648;13.764;2024-01-27T09:10:59;23.85;;;20.60;;
84187;SDS011;74316;45.648;13.764;2024-01-27T09:13:25;22.17;;;19.33;;
84187;SDS011;74316;45.648;13.764;2024-01-27T09:15:52;31.90;;;18.90;;
84187;SDS011;74316;45.648;13.764;2024-01-27T09:18:18;30.38;;;18.70;;
84187;SDS011;74316;45.648;13.764;2024-01-27T09:20:43;26.85;;;18.33;;
84187;SDS011;74316;45.648;13.764;2024-01-27T09:23:09;23.38;;;17.92;;
84187;SDS011;74316;45.648;13.764;2024-01-27T09:25:35;26.10;;;17.50;;
84187;SDS011;74316;45.648;13.764;2024-01-27T09:28:00;27.15;;;17.08;;
84187;SDS011;74316;45.648;13.764;2024-01-27T09:30:26;26.77;;;17.77;;
84187;SDS011;74316;45.648;13.764;2024-01-27T09:32:52;26.58;;;17.05;;
84187;SDS011;74316;45.648;13.764;2024-01-27T09:35:18;28.80;;;15.43;;
84187;SDS011;74316;45.648;13.764;2024-01-27T09:37:45;24.67;;;15.93;;
84187;SDS011;74316;45.648;13.764;2024-01-27T09:40:12;25.52;;;16.08;;
84187;SDS011;74316;45.648;13.764;2024-01-27T09:42:38;23.40;;;15.90;;
84187;SDS011;74316;45.648;13.764;2024-01-27T09:45:04;22.13;;;15.68;;
84187;SDS011;74316;45.648;13.764;2024-01-27T09:47:30;22.42;;;15.07;;
84187;SDS011;74316;45.648;13.764;2024-01-27T09:49:57;23.85;;;14.38;;
84187;SDS011;74316;45.648;13.764;2024-01-27T09:52:23;17.48;;;14.68;;
84187;SDS011;74316;45.648;13.764;2024-01-27T09:54:49;20.63;;;15.02;;
84187;SDS011;74316;45.648;13.764;2024-01-27T09:57:15;18.95;;;13.90;;
84187;SDS011;74316;45.648;13.764;2024-01-27T09:59:43;17.40;;;13.68;;
84187;SDS011;74316;45.648;13.764;2024-01-27T10:02:11;16.52;;;12.27;;
84187;SDS011;74316;45.648;13.764;2024-01-27T10:04:40;21.88;;;12.48;;
84187;SDS011;74316;45.648;13.764;2024-01-27T10:07:07;20.98;;;11.98;;
84187;SDS011;74316;45.648;13.764;2024-01-27T10:09:32;14.48;;;11.57;;
84187;SDS011;74316;45.648;13.764;2024-01-27T10:11:59;21.02;;;12.18;;
84187;SDS011;74316;45.648;13.764;2024-01-27T10:14:39;16.98;;;11.70;;
84187;SDS011;74316;45.648;13.764;2024-01-27T10:17:05;14.52;;;12.00;;
84187;SDS011;74316;45.648;13.764;2024-01-27T10:19:34;16.58;;;12.07;;
84187;SDS011;74316;45.648;13.764;2024-01-27T10:22:00;13.95;;;11.13;;
84187;SDS011;74316;45.648;13.764;2024-01-27T10:24:31;14.05;;;11.15;;
84187;SDS011;74316;45.648;13.764;2024-01-27T10:27:03;11.82;;;10.63;;
84187;SDS011;74316;45.648;13.764;2024-01-27T10:29:30;16.83;;;10.65;;
84187;SDS011;74316;45.648;13.764;2024-01-27T10:31:56;11.30;;;10.00;;
84187;SDS011;74316;45.648;13.764;2024-01-27T10:34:32;11.85;;;10.27;;
84187;SDS011;74316;45.648;13.764;2024-01-27T10:36:58;13.70;;;10.20;;
84187;SDS011;74316;45.648;13.764;2024-01-27T10:39:24;14.30;;;9.32;;
84187;SDS011;74316;45.648;13.764;2024-01-27T10:41:50;11.35;;;9.98;;
84187;SDS011;74316;45.648;13.764;2024-01-27T10:44:17;10.98;;;9.45;;
84187;SDS011;74316;45.648;13.764;2024-01-27T10:46:43;13.32;;;9.73;;
84187;SDS011;74316;45.648;13.764;2024-01-27T10:49:15;11.57;;;9.38;;
84187;SDS011;74316;45.648;13.764;2024-01-27T10:51:46;12.45;;;8.90;;
84187;SDS011;74316;45.648;13.764;2024-01-27T10:54:27;10.20;;;8.95;;
84187;SDS011;74316;45.648;13.764;2024-01-27T10:56:54;11.10;;;9.02;;
84187;SDS011;74316;45.648;13.764;2024-01-27T10:59:21;10.98;;;8.20;;
84187;SDS011;74316;45.648;13.764;2024-01-27T11:01:51;10.38;;;8.57;;
84187;SDS011;74316;45.648;13.764;2024-01-27T11:04:19;10.25;;;8.15;;
84187;SDS011;74316;45.648;13.764;2024-01-27T11:06:47;9.10;;;7.97;;
84187;SDS011;74316;45.648;13.764;2024-01-27T11:09:13;10.35;;;8.07;;
84187;SDS011;74316;45.648;13.764;2024-01-27T11:11:40;8.38;;;7.45;;
84187;SDS011;74316;45.648;13.764;2024-01-27T11:14:08;8.73;;;7.88;;
84187;SDS011;74316;45.648;13.764;2024-01-27T11:16:35;10.43;;;8.20;;
84187;SDS011;74316;45.648;13.764;2024-01-27T11:19:01;9.90;;;7.65;;
84187;SDS011;74316;45.648;13.764;2024-01-27T11:21:27;11.05;;;7.65;;
84187;SDS011;74316;45.648;13.764;2024-01-27T11:23:53;8.85;;;8.05;;
84187;SDS011;74316;45.648;13.764;2024-01-27T11:26:20;9.90;;;7.40;;
84187;SDS011;74316;45.648;13.764;2024-01-27T11:28:47;8.45;;;7.60;;
84187;SDS011;74316;45.648;13.764;2024-01-27T11:31:20;15.10;;;7.55;;
84187;SDS011;74316;45.648;13.764;2024-01-27T11:33:50;8.88;;;7.18;;
84187;SDS011;74316;45.648;13.764;2024-01-27T11:36:23;8.95;;;7.30;;
84187;SDS011;74316;45.648;13.764;2024-01-27T11:38:52;7.43;;;6.70;;
84187;SDS011;74316;45.648;13.764;2024-01-27T11:41:28;9.52;;;7.00;;
84187;SDS011;74316;45.648;13.764;2024-01-27T11:43:55;10.20;;;8.82;;
84187;SDS011;74316;45.648;13.764;2024-01-27T11:46:21;13.55;;;7.20;;
84187;SDS011;74316;45.648;13.764;2024-01-27T11:48:48;13.15;;;8.02;;
84187;SDS011;74316;45.648;13.764;2024-01-27T11:51:14;10.88;;;8.77;;
84187;SDS011;74316;45.648;13.764;2024-01-27T11:53:40;11.88;;;9.05;;
84187;SDS011;74316;45.648;13.764;2024-01-27T11:56:06;15.93;;;8.95;;
84187;SDS011;74316;45.648;13.764;2024-01-27T11:58:32;15.90;;;10.57;;
84187;SDS011;74316;45.648;13.764;2024-01-27T12:00:58;15.75;;;10.45;;
84187;SDS011;74316;45.648;13.764;2024-01-27T12:03:25;17.92;;;11.15;;
84187;SDS011;74316;45.648;13.764;2024-01-27T12:05:52;14.30;;;11.65;;
84187;SDS011;74316;45.648;13.764;2024-01-27T12:08:18;14.75;;;12.15;;
84187;SDS011;74316;45.648;13.764;2024-01-27T12:10:44;19.55;;;12.27;;
84187;SDS011;74316;45.648;13.764;2024-01-27T12:13:10;16.45;;;12.57;;
84187;SDS011;74316;45.648;13.764;2024-01-27T12:15:36;15.63;;;12.73;;
84187;SDS011;74316;45.648;13.764;2024-01-27T12:18:04;14.45;;;12.85;;
84187;SDS011;74316;45.648;13.764;2024-01-27T12:20:30;14.93;;;12.52;;
84187;SDS011;74316;45.648;13.764;2024-01-27T12:23:02;18.63;;;13.05;;
84187;SDS011;74316;45.648;13.764;2024-01-27T12:25:29;23.20;;;13.65;;
84187;SDS011;74316;45.648;13.764;2024-01-27T12:27:54;24.70;;;13.70;;
84187;SDS011;74316;45.648;13.764;2024-01-27T12:30:21;14.93;;;12.52;;
84187;SDS011;74316;45.648;13.764;2024-01-27T12:32:47;21.65;;;15.40;;
84187;SDS011;74316;45.648;13.764;2024-01-27T12:35:13;34.90;;;15.00;;
84187;SDS011;74316;45.648;13.764;2024-01-27T12:37:39;33.35;;;17.52;;
84187;SDS011;74316;45.648;13.764;2024-01-27T12:40:18;30.58;;;16.25;;
84187;SDS011;74316;45.648;13.764;2024-01-27T12:42:44;33.70;;;18.55;;
84187;SDS011;74316;45.648;13.764;2024-01-27T12:45:10;32.58;;;17.25;;
84187;SDS011;74316;45.648;13.764;2024-01-27T12:47:35;35.72;;;17.67;;
84187;SDS011;74316;45.648;13.764;2024-01-27T12:50:01;34.03;;;18.90;;
84187;SDS011;74316;45.648;13.764;2024-01-27T12:52:28;36.50;;;18.70;;
84187;SDS011;74316;45.648;13.764;2024-01-27T12:54:53;30.70;;;17.85;;
84187;SDS011;74316;45.648;13.764;2024-01-27T12:57:19;32.58;;;18.08;;
84187;SDS011;74316;45.648;13.764;2024-01-27T12:59:46;42.45;;;17.95;;
84187;SDS011;74316;45.648;13.764;2024-01-27T13:02:12;32.28;;;16.48;;
84187;SDS011;74316;45.648;13.764;2024-01-27T13:04:37;31.60;;;16.73;;
84187;SDS011;74316;45.648;13.764;2024-01-27T13:07:03;32.38;;;17.98;;
84187;SDS011;74316;45.648;13.764;2024-01-27T13:09:30;34.17;;;17.85;;
84187;SDS011;74316;45.648;13.764;2024-01-27T13:11:56;34.00;;;16.60;;
84187;SDS011;74316;45.648;13.764;2024-01-27T13:14:22;31.00;;;16.25;;
84187;SDS011;74316;45.648;13.764;2024-01-27T13:16:49;32.88;;;15.55;;
84187;SDS011;74316;45.648;13.764;2024-01-27T13:19:14;29.33;;;15.45;;
84187;SDS011;74316;45.648;13.764;2024-01-27T13:21:40;24.92;;;15.35;;
84187;SDS011;74316;45.648;13.764;2024-01-27T13:24:06;30.73;;;14.98;;
84187;SDS011;74316;45.648;13.764;2024-01-27T13:26:33;28.25;;;14.73;;
84187;SDS011;74316;45.648;13.764;2024-01-27T13:29:03;25.02;;;14.70;;
84187;SDS011;74316;45.648;13.764;2024-01-27T13:31:29;28.08;;;14.02;;
84187;SDS011;74316;45.648;13.764;2024-01-27T13:33:56;34.85;;;14.10;;
84187;SDS011;74316;45.648;13.764;2024-01-27T13:36:23;34.60;;;14.80;;
84187;SDS011;74316;45.648;13.764;2024-01-27T13:38:48;25.80;;;13.57;;
84187;SDS011;74316;45.648;13.764;2024-01-27T13:41:14;28.52;;;13.73;;
84187;SDS011;74316;45.648;13.764;2024-01-27T13:43:40;28.58;;;14.32;;
84187;SDS011;74316;45.648;13.764;2024-01-27T13:46:06;23.35;;;13.85;;
84187;SDS011;74316;45.648;13.764;2024-01-27T13:48:32;27.20;;;13.77;;
84187;SDS011;74316;45.648;13.764;2024-01-27T13:50:58;30.08;;;14.23;;
84187;SDS011;74316;45.648;13.764;2024-01-27T13:53:24;27.13;;;14.88;;
84187;SDS011;74316;45.648;13.764;2024-01-27T13:55:49;34.65;;;14.70;;
84187;SDS011;74316;45.648;13.764;2024-01-27T13:58:16;24.30;;;13.82;;
84187;SDS011;74316;45.648;13.764;2024-01-27T14:00:43;26.05;;;14.93;;
84187;SDS011;74316;45.648;13.764;2024-01-27T14:03:09;47.83;;;16.98;;
84187;SDS011;74316;45.648;13.764;2024-01-27T14:05:34;26.52;;;15.05;;
84187;SDS011;74316;45.648;13.764;2024-01-27T14:08:00;34.33;;;16.35;;
84187;SDS011;74316;45.648;13.764;2024-01-27T14:10:26;35.10;;;17.63;;
84187;SDS011;74316;45.648;13.764;2024-01-27T14:12:52;37.33;;;17.48;;